Time;durP1;ratioP1;P1;durP2;ratioP2;P2;SDS_P1;SDS_P2;PMS_P1;PMS_P2;Temp;Humidity;BMP_temperature;BMP_pressure;BME280_temperature;BME280_humidity;BME280_pressure;Samples;Min_cycle;Max_cycle;Signal;HPM_P1;HPM_P2
2023/08/16 00:00:03;;;;;;;;;3.67;3.67;;;;;24.69;67.97;100359.09;5036886;28;45458;-72
2023/08/16 00:02:29;;;;;;;;;2.00;2.00;;;;;24.63;68.34;100353.06;5036886;28;45529;-71
2023/08/16 00:04:55;;;;;;;;;4.00;3.00;;;;;24.62;68.25;100354.88;5037930;28;45490;-71
2023/08/16 00:07:20;;;;;;;;;4.33;3.00;;;;;24.61;68.71;100366.44;5037226;28;45493;-72
2023/08/16 00:09:47;;;;;;;;;2.00;2.00;;;;;24.53;69.73;100350.69;5036453;28;45729;-71
2023/08/16 00:12:13;;;;;;;;;2.00;2.00;;;;;24.48;69.38;100359.72;5037255;28;45547;-71
2023/08/16 00:14:38;;;;;;;;;3.00;3.00;;;;;24.55;68.66;100367.53;5036661;28;45532;-71
2023/08/16 00:17:04;;;;;;;;;2.33;2.00;;;;;24.60;68.28;100359.38;5035748;28;45605;-71
2023/08/16 00:19:30;;;;;;;;;3.67;3.00;;;;;24.56;68.41;100357.72;5037066;28;45557;-70
2023/08/16 00:21:55;;;;;;;;;3.00;2.67;;;;;24.60;67.86;100348.69;5036290;28;45619;-71
2023/08/16 00:24:21;;;;;;;;;3.00;3.00;;;;;24.61;68.51;100348.66;5037026;28;45470;-71
2023/08/16 00:26:46;;;;;;;;;3.00;3.00;;;;;24.55;68.50;100337.28;5036891;28;45499;-71
2023/08/16 00:29:12;;;;;;;;;3.00;2.33;;;;;24.59;68.11;100342.50;5036899;28;46184;-71
2023/08/16 00:31:38;;;;;;;;;3.00;3.00;;;;;24.59;68.22;100336.25;5036964;28;45339;-71
2023/08/16 00:34:03;;;;;;;;;4.67;3.00;;;;;24.60;68.30;100332.69;5037352;28;45478;-71
2023/08/16 00:36:29;;;;;;;;;2.00;1.33;;;;;24.59;68.10;100330.91;5037681;28;45684;-71
2023/08/16 00:38:54;;;;;;;;;2.00;2.00;;;;;24.59;68.19;100321.13;5036659;28;45521;-71
2023/08/16 00:41:20;;;;;;;;;2.00;2.00;;;;;24.58;68.01;100323.84;5036818;28;45814;-71
2023/08/16 00:43:46;;;;;;;;;2.67;2.67;;;;;24.54;67.88;100315.03;5037078;28;45756;-71
2023/08/16 00:46:12;;;;;;;;;1.67;1.67;;;;;24.59;67.80;100329.13;5037620;28;46280;-71
2023/08/16 00:48:41;;;;;;;;;4.67;3.00;;;;;24.58;67.46;100316.69;5034058;28;45509;-71
2023/08/16 00:51:08;;;;;;;;;2.33;2.00;;;;;24.56;67.99;100318.53;5036761;28;45369;-71
2023/08/16 00:53:34;;;;;;;;;4.00;3.00;;;;;24.56;67.76;100312.34;5035419;28;45514;-71
2023/08/16 00:56:02;;;;;;;;;3.00;3.00;;;;;24.53;67.95;100315.97;5036954;28;46136;-71
2023/08/16 00:58:28;;;;;;;;;4.00;2.67;;;;;24.49;68.54;100308.97;5036573;28;45648;-71
2023/08/16 01:00:54;;;;;;;;;3.00;2.67;;;;;24.53;68.61;100304.41;5036656;28;45379;-71
2023/08/16 01:03:20;;;;;;;;;3.67;2.00;;;;;24.50;68.86;100307.16;5036633;28;45380;-71
2023/08/16 01:05:45;;;;;;;;;2.33;2.00;;;;;24.52;68.30;100303.53;5036696;28;46115;-71
2023/08/16 01:08:11;;;;;;;;;3.00;2.33;;;;;24.48;68.29;100287.63;5036949;28;45663;-71
2023/08/16 01:11:01;;;;;;;;;3.33;2.33;;;;;24.53;68.67;100305.31;5036036;28;45636;-71
2023/08/16 01:13:37;;;;;;;;;4.67;3.00;;;;;24.50;68.56;100292.03;5029607;28;45513;-71
2023/08/16 01:16:08;;;;;;;;;3.00;2.67;;;;;24.47;68.50;100288.53;5036227;28;46003;-71
2023/08/16 01:18:37;;;;;;;;;3.00;3.00;;;;;24.47;68.20;100289.44;5036079;28;45473;-71
2023/08/16 01:21:06;;;;;;;;;2.00;2.00;;;;;24.52;68.35;100297.34;5036925;28;45421;-70
2023/08/16 01:23:49;;;;;;;;;3.00;3.00;;;;;24.45;68.95;100293.94;5035111;28;45512;-69
2023/08/16 01:26:30;;;;;;;;;3.00;3.00;;;;;24.30;69.19;100281.94;5036030;28;46202;-69
2023/08/16 01:28:59;;;;;;;;;4.67;4.67;;;;;24.35;69.00;100281.78;5035882;28;45400;-70
2023/08/16 01:31:25;;;;;;;;;2.00;2.00;;;;;24.35;69.55;100287.13;5036188;28;45374;-69
2023/08/16 01:33:51;;;;;;;;;4.33;3.33;;;;;24.28;70.05;100286.47;5034993;28;45578;-69
2023/08/16 01:36:17;;;;;;;;;4.00;2.33;;;;;24.21;70.67;100293.78;5035551;28;46047;-69
2023/08/16 01:38:42;;;;;;;;;5.33;5.33;;;;;24.08;71.76;100279.06;5034090;28;45449;-69
2023/08/16 01:41:19;;;;;;;;;3.00;3.00;;;;;24.14;71.50;100289.53;5034820;28;45471;-69
2023/08/16 01:43:46;;;;;;;;;3.67;3.00;;;;;24.10;71.02;100281.69;5035947;28;45581;-71
2023/08/16 01:46:14;;;;;;;;;3.67;3.67;;;;;24.10;70.86;100293.22;5035875;28;45613;-69
2023/08/16 01:48:41;;;;;;;;;4.00;3.00;;;;;24.06;71.01;100294.25;5036158;28;45331;-70
2023/08/16 01:51:07;;;;;;;;;3.00;3.00;;;;;24.06;71.32;100288.91;5040096;28;45489;-76
2023/08/16 01:53:36;;;;;;;;;4.00;3.67;;;;;24.10;71.26;100290.56;5040345;28;45343;-76
2023/08/16 01:56:02;;;;;;;;;4.00;3.00;;;;;24.07;70.88;100287.09;5035231;28;47365;-76
2023/08/16 01:58:28;;;;;;;;;5.00;4.33;;;;;24.12;69.85;100285.19;5035554;28;45827;-75
2023/08/16 02:01:08;;;;;;;;;3.00;3.00;;;;;24.09;70.51;100288.78;5033631;28;46512;-75
2023/08/16 02:03:34;;;;;;;;;2.33;2.33;;;;;24.06;70.47;100280.03;5033524;28;45352;-77
2023/08/16 02:06:00;;;;;;;;;3.33;3.00;;;;;24.15;70.45;100290.41;5030917;28;45448;-77
2023/08/16 02:08:26;;;;;;;;;3.00;2.67;;;;;24.18;70.21;100287.66;5035530;28;45434;-75
2023/08/16 02:10:52;;;;;;;;;4.00;3.00;;;;;24.19;70.10;100287.63;5035586;28;45347;-76
2023/08/16 02:13:18;;;;;;;;;3.00;3.00;;;;;24.17;69.96;100296.56;5036024;28;45463;-77
2023/08/16 02:15:44;;;;;;;;;2.00;2.00;;;;;24.10;70.30;100279.03;5033974;28;45482;-73
2023/08/16 02:18:10;;;;;;;;;3.00;3.00;;;;;24.19;69.98;100300.06;5035475;28;45405;-76
2023/08/16 02:20:42;;;;;;;;;3.33;2.33;;;;;24.18;69.92;100299.22;5035588;28;45461;-76
2023/08/16 02:23:12;;;;;;;;;4.00;4.00;;;;;24.13;70.62;100298.50;5038913;28;45451;-76
2023/08/16 02:25:39;;;;;;;;;3.00;3.00;;;;;24.14;70.60;100299.34;5036891;28;46243;-75
2023/08/16 02:28:05;;;;;;;;;2.67;2.67;;;;;24.13;70.82;100300.25;5038862;28;45515;-76
2023/08/16 02:30:31;;;;;;;;;3.00;2.33;;;;;24.11;70.76;100296.75;5038650;28;45650;-77
2023/08/16 02:32:57;;;;;;;;;5.00;4.67;;;;;24.06;71.29;100298.72;5039109;28;45533;-77
2023/08/16 02:35:23;;;;;;;;;3.33;3.00;;;;;24.04;71.75;100308.56;5038087;28;46112;-77
2023/08/16 02:37:48;;;;;;;;;5.00;4.00;;;;;23.98;71.76;100297.13;5032881;28;45493;-77
2023/08/16 02:40:15;;;;;;;;;6.67;3.33;;;;;24.04;71.21;100304.09;5034227;28;45463;-74
2023/08/16 02:42:41;;;;;;;;;3.67;3.00;;;;;23.98;71.20;100298.94;5038590;28;45430;-76
2023/08/16 02:45:07;;;;;;;;;5.00;4.33;;;;;24.10;70.62;100309.25;5038036;28;45506;-77
2023/08/16 02:47:32;;;;;;;;;4.00;3.00;;;;;24.11;70.70;100312.78;5038605;28;45485;-76
2023/08/16 02:49:58;;;;;;;;;4.67;4.00;;;;;24.14;70.36;100307.34;5038398;28;45335;-76
2023/08/16 02:52:28;;;;;;;;;5.33;4.33;;;;;24.12;70.28;100301.19;5039262;28;45403;-76
2023/08/16 02:54:54;;;;;;;;;4.00;4.00;;;;;24.20;69.65;100307.19;5038224;28;46120;-70
2023/08/16 02:57:20;;;;;;;;;4.00;3.00;;;;;24.19;70.01;100306.31;5038612;28;45443;-70
2023/08/16 02:59:46;;;;;;;;;4.00;3.33;;;;;24.24;69.82;100313.31;5038093;28;45589;-70
2023/08/16 03:02:15;;;;;;;;;3.33;3.00;;;;;24.21;70.14;100314.25;5037122;28;45589;-72
2023/08/16 03:04:41;;;;;;;;;3.67;3.33;;;;;24.14;70.14;100304.69;5035362;28;45554;-70
2023/08/16 03:07:07;;;;;;;;;3.67;3.67;;;;;24.19;70.18;100314.31;5030057;28;45347;-69
2023/08/16 03:09:33;;;;;;;;;6.00;4.00;;;;;24.07;70.50;100308.44;5037722;28;45936;-74
2023/08/16 03:11:59;;;;;;;;;5.00;3.67;;;;;24.02;70.54;100298.78;5038105;28;45513;-73
2023/08/16 03:14:25;;;;;;;;;4.00;4.00;;;;;24.08;70.42;100308.41;5036885;28;45876;-73
2023/08/16 03:16:50;;;;;;;;;3.00;3.00;;;;;24.09;70.57;100307.47;5037470;28;45673;-73
2023/08/16 03:19:16;;;;;;;;;3.67;3.33;;;;;24.12;70.48;100311.88;5033747;28;45491;-75
2023/08/16 03:21:42;;;;;;;;;3.67;3.00;;;;;24.08;70.74;100311.09;5035452;28;45570;-75
2023/08/16 03:24:08;;;;;;;;;5.00;4.00;;;;;24.12;70.53;100309.19;5037681;28;46016;-77
2023/08/16 03:26:34;;;;;;;;;4.00;4.00;;;;;24.15;70.52;100319.78;5037903;28;45553;-77
2023/08/16 03:29:00;;;;;;;;;3.33;3.33;;;;;24.16;70.51;100313.53;5037714;28;45550;-77
2023/08/16 03:31:26;;;;;;;;;5.00;4.67;;;;;24.17;70.17;100307.25;5038460;28;45414;-76
2023/08/16 03:33:52;;;;;;;;;5.00;4.00;;;;;24.06;70.87;100293.38;5036537;28;46251;-77
2023/08/16 03:36:17;;;;;;;;;4.00;4.00;;;;;24.05;70.95;100304.94;5037646;28;45534;-77
2023/08/16 03:38:43;;;;;;;;;6.33;4.00;;;;;24.02;71.13;100292.59;5037483;28;45485;-78
2023/08/16 03:41:09;;;;;;;;;4.00;3.00;;;;;24.08;70.52;100297.75;5037655;28;45498;-77
2023/08/16 03:43:38;;;;;;;;;3.67;3.67;;;;;24.05;70.33;100284.47;5036976;28;45471;-74
2023/08/16 03:46:04;;;;;;;;;6.33;5.00;;;;;24.08;70.27;100281.72;5037622;28;45487;-76
2023/08/16 03:48:30;;;;;;;;;5.33;4.00;;;;;24.11;69.71;100281.63;5037397;28;45261;-77
2023/08/16 03:50:56;;;;;;;;;5.33;5.00;;;;;24.19;69.82;100300.06;5034528;28;45613;-75
2023/08/16 03:53:22;;;;;;;;;7.00;5.67;;;;;24.14;70.27;100292.22;5038008;28;45498;-75
2023/08/16 03:55:48;;;;;;;;;4.67;4.67;;;;;24.08;70.34;100288.88;5037621;28;45374;-70
2023/08/16 03:58:13;;;;;;;;;5.00;4.33;;;;;24.09;71.00;100287.94;5037808;28;45537;-70
2023/08/16 04:00:40;;;;;;;;;5.00;5.00;;;;;24.14;70.63;100296.69;5037510;28;45370;-72
2023/08/16 04:03:06;;;;;;;;;5.00;5.00;;;;;24.19;70.74;100292.06;5034572;28;46879;-70
2023/08/16 04:05:33;;;;;;;;;4.00;4.00;;;;;24.15;70.76;100288.63;5037043;28;45477;-69
2023/08/16 04:07:59;;;;;;;;;4.67;4.33;;;;;24.15;70.51;100298.41;5049877;28;45406;-71
2023/08/16 04:10:24;;;;;;;;;2.33;2.33;;;;;24.19;70.51;100295.63;5036914;28;45540;-70
2023/08/16 04:12:50;;;;;;;;;4.67;4.00;;;;;24.16;70.65;100285.03;5037103;28;46078;-69
2023/08/16 04:15:16;;;;;;;;;5.00;5.00;;;;;24.12;71.17;100298.53;5037256;28;45463;-72
2023/08/16 04:17:42;;;;;;;;;4.33;4.00;;;;;23.95;71.75;100283.88;5037469;28;45375;-70
2023/08/16 04:20:08;;;;;;;;;3.00;3.00;;;;;23.97;71.48;100294.50;5032542;28;45652;-70
2023/08/16 04:22:35;;;;;;;;;4.67;4.00;;;;;23.99;71.03;100298.00;5036234;28;46215;-70
2023/08/16 04:25:01;;;;;;;;;3.67;3.67;;;;;24.06;70.90;100296.03;5036700;28;45573;-71
2023/08/16 04:27:27;;;;;;;;;4.00;3.67;;;;;24.07;71.04;100289.78;5037734;28;45457;-75
2023/08/16 04:29:53;;;;;;;;;4.00;4.00;;;;;24.11;71.00;100300.28;5037138;28;45519;-76
2023/08/16 04:32:19;;;;;;;;;4.67;4.00;;;;;24.12;70.95;100295.84;5036495;28;45537;-76
2023/08/16 04:34:45;;;;;;;;;6.33;6.00;;;;;24.18;70.86;100301.00;5036600;28;45823;-75
2023/08/16 04:37:11;;;;;;;;;4.00;3.00;;;;;24.11;70.97;100296.75;5036926;28;45430;-76
2023/08/16 04:39:37;;;;;;;;;4.33;4.33;;;;;24.08;70.87;100291.53;5032791;28;45583;-71
2023/08/16 04:42:02;;;;;;;;;3.67;3.33;;;;;24.16;70.84;100306.38;5036530;28;45895;-75
2023/08/16 04:44:28;;;;;;;;;4.00;3.33;;;;;24.17;71.09;100304.59;5035877;28;46050;-70
2023/08/16 04:46:54;;;;;;;;;4.67;4.00;;;;;24.15;70.89;100301.09;5037695;28;45582;-69
2023/08/16 04:49:20;;;;;;;;;5.00;4.67;;;;;24.16;70.71;100301.03;5036077;28;45487;-70
2023/08/16 04:51:46;;;;;;;;;3.67;3.67;;;;;24.10;71.04;100301.25;5033012;28;46295;-69
2023/08/16 04:54:11;;;;;;;;;7.67;4.67;;;;;24.10;71.20;100300.38;5032922;28;45560;-74
2023/08/16 04:56:37;;;;;;;;;5.00;4.00;;;;;24.16;70.54;100302.84;5032640;28;45487;-70
2023/08/16 04:59:03;;;;;;;;;4.67;4.00;;;;;24.19;70.64;100302.75;5037048;28;45423;-78
2023/08/16 05:01:29;;;;;;;;;5.33;4.00;;;;;24.20;70.24;100304.50;5033463;28;45481;-76
2023/08/16 05:03:54;;;;;;;;;6.67;5.00;;;;;24.18;70.04;100299.22;5037271;28;45648;-70
2023/08/16 05:06:20;;;;;;;;;3.00;2.33;;;;;24.19;70.75;100295.63;5041282;28;45507;-71
2023/08/16 05:08:45;;;;;;;;;4.67;4.00;;;;;24.15;70.79;100293.97;5032856;28;45500;-73
2023/08/16 05:11:11;;;;;;;;;4.00;3.67;;;;;24.11;70.64;100292.28;5031994;28;45328;-70
2023/08/16 05:13:37;;;;;;;;;3.67;3.67;;;;;24.20;70.61;100300.03;5035584;28;45541;-73
2023/08/16 05:16:02;;;;;;;;;4.00;4.00;;;;;24.17;70.67;100307.25;5036794;28;45449;-72
2023/08/16 05:18:28;;;;;;;;;4.00;3.67;;;;;24.12;70.51;100293.19;5037138;28;45477;-71
2023/08/16 05:20:59;;;;;;;;;5.00;4.00;;;;;24.18;70.89;100303.69;5037584;28;46199;-70
2023/08/16 05:23:24;;;;;;;;;5.00;5.00;;;;;24.16;70.60;100294.84;5041213;28;45459;-69
2023/08/16 05:25:50;;;;;;;;;2.00;2.00;;;;;24.22;70.74;100313.34;5036810;28;45439;-70
2023/08/16 05:28:16;;;;;;;;;5.00;3.33;;;;;24.18;71.21;100301.88;5028158;28;45749;-72
2023/08/16 05:30:41;;;;;;;;;4.00;4.00;;;;;24.19;70.69;100310.75;5033803;28;45541;-70
2023/08/16 05:33:07;;;;;;;;;5.00;4.00;;;;;24.21;70.50;100314.25;5027743;28;45500;-69
2023/08/16 05:35:33;;;;;;;;;4.00;3.00;;;;;24.25;70.54;100307.03;5036181;28;45450;-70
2023/08/16 05:38:00;;;;;;;;;2.00;2.00;;;;;24.27;70.82;100319.41;5037698;28;45447;-69
2023/08/16 05:40:25;;;;;;;;;4.33;4.33;;;;;24.28;70.57;100317.63;5035627;28;45458;-70
2023/08/16 05:42:51;;;;;;;;;5.33;5.00;;;;;24.30;70.07;100319.31;5033641;28;45465;-70
2023/08/16 05:45:16;;;;;;;;;5.67;5.00;;;;;24.27;70.20;100311.38;5029253;28;45894;-73
2023/08/16 05:47:42;;;;;;;;;3.33;3.33;;;;;24.32;70.28;100313.94;5040360;28;45518;-70
2023/08/16 05:50:09;;;;;;;;;5.00;4.00;;;;;24.32;70.21;100317.47;5037740;28;45933;-72
2023/08/16 05:52:35;;;;;;;;;6.00;5.00;;;;;24.26;70.28;100323.00;5034101;28;45568;-70
2023/08/16 05:55:00;;;;;;;;;5.00;4.00;;;;;24.26;70.56;100319.47;5036086;28;45507;-71
2023/08/16 05:57:26;;;;;;;;;6.00;5.00;;;;;24.30;70.44;100313.97;5035645;28;47107;-71
2023/08/16 05:59:52;;;;;;;;;5.00;4.67;;;;;24.36;69.69;100324.47;5035766;28;45965;-71
2023/08/16 06:02:17;;;;;;;;;5.00;4.00;;;;;24.36;70.10;100324.47;5037915;28;45552;-73
2023/08/16 06:04:43;;;;;;;;;6.00;4.33;;;;;24.39;69.46;100316.38;5034516;28;45479;-70
2023/08/16 06:07:08;;;;;;;;;3.00;2.33;;;;;24.36;69.63;100311.13;5036524;28;45488;-71
2023/08/16 06:09:34;;;;;;;;;7.00;5.00;;;;;24.34;69.65;100325.44;5028715;28;45563;-70
2023/08/16 06:12:00;;;;;;;;;5.33;4.33;;;;;24.33;69.73;100324.56;5030492;28;45613;-72
2023/08/16 06:14:26;;;;;;;;;6.33;5.67;;;;;24.36;69.31;100321.78;5035391;28;45658;-71
2023/08/16 06:16:51;;;;;;;;;6.00;6.00;;;;;24.45;69.13;100327.78;5035867;28;45363;-69
2023/08/16 06:19:17;;;;;;;;;7.67;7.33;;;;;24.41;69.61;100327.88;5028551;28;45445;-72
2023/08/16 06:21:42;;;;;;;;;6.00;5.00;;;;;24.37;69.47;100325.34;5035099;28;45627;-69
2023/08/16 06:24:12;;;;;;;;;7.00;7.00;;;;;24.39;69.79;100324.38;5035115;28;45527;-78
2023/08/16 06:26:45;;;;;;;;;8.00;7.00;;;;;24.44;69.12;100323.38;5035595;28;46089;-77
2023/08/16 06:29:19;;;;;;;;;6.00;6.00;;;;;24.49;68.94;100319.63;5034881;28;45978;-74
2023/08/16 06:31:49;;;;;;;;;8.00;6.00;;;;;24.59;68.82;100328.25;5035866;28;45569;-74
2023/08/16 06:34:19;;;;;;;;;7.33;6.33;;;;;24.59;69.04;100325.56;5034730;28;45510;-77
2023/08/16 06:36:55;;;;;;;;;6.33;6.33;;;;;24.64;68.54;100326.31;5035329;28;45488;-75
2023/08/16 06:39:28;;;;;;;;;8.00;7.00;;;;;24.74;68.00;100332.25;5031226;28;45991;-74
2023/08/16 06:41:58;;;;;;;;;6.67;6.00;;;;;24.83;68.07;100323.03;5031691;28;45482;-77
2023/08/16 06:44:24;;;;;;;;;6.00;5.67;;;;;24.88;67.75;100326.44;5034467;28;45537;-70
2023/08/16 06:46:50;;;;;;;;;9.67;8.67;;;;;24.82;67.64;100316.84;5035008;28;45748;-70
2023/08/16 06:49:16;;;;;;;;;7.67;7.00;;;;;24.91;66.98;100326.34;5033986;28;45441;-69
2023/08/16 06:51:41;;;;;;;;;8.00;7.00;;;;;24.83;66.86;100323.94;5038068;28;45601;-70
2023/08/16 06:54:07;;;;;;;;;6.67;6.67;;;;;24.67;67.35;100322.66;5031713;28;45484;-72
2023/08/16 06:56:33;;;;;;;;;9.33;8.33;;;;;24.63;67.82;100321.91;5033368;28;45522;-70
2023/08/16 06:58:59;;;;;;;;;7.33;7.00;;;;;24.49;68.17;100314.31;5034742;28;45512;-69
2023/08/16 07:01:25;;;;;;;;;7.00;6.33;;;;;24.75;67.98;100325.97;5034158;28;45756;-69
2023/08/16 07:03:50;;;;;;;;;8.67;8.67;;;;;24.89;67.37;100325.50;5029955;28;45699;-71
2023/08/16 07:06:17;;;;;;;;;7.67;7.00;;;;;25.14;66.65;100321.09;5035524;28;45546;-70
2023/08/16 07:08:43;;;;;;;;;9.33;8.00;;;;;25.28;65.98;100320.66;5037897;28;46074;-72
2023/08/16 07:11:09;;;;;;;;;8.00;7.00;;;;;25.36;65.69;100317.72;5037606;28;45751;-76
2023/08/16 07:13:35;;;;;;;;;7.33;7.33;;;;;25.50;64.73;100317.25;5029816;28;45416;-69
2023/08/16 07:16:00;;;;;;;;;9.00;7.00;;;;;25.59;64.45;100319.59;5036111;28;45473;-69
2023/08/16 07:18:26;;;;;;;;;10.00;8.00;;;;;25.70;64.44;100320.06;5038488;28;46098;-69
2023/08/16 07:20:52;;;;;;;;;11.67;10.67;;;;;25.83;64.02;100323.19;5037862;28;45687;-69
2023/08/16 07:23:18;;;;;;;;;8.00;8.00;;;;;25.98;63.68;100322.66;5037617;28;46209;-69
2023/08/16 07:25:44;;;;;;;;;10.00;8.33;;;;;26.14;63.37;100324.72;5027149;28;45531;-69
2023/08/16 07:28:10;;;;;;;;;10.67;10.00;;;;;26.26;63.09;100323.38;5031524;28;47126;-70
2023/08/16 07:30:38;;;;;;;;;11.67;10.67;;;;;26.23;62.99;100316.34;5033672;28;45795;-70
2023/08/16 07:33:05;;;;;;;;;11.67;10.67;;;;;26.27;62.90;100325.16;5035372;28;45421;-71
2023/08/16 07:35:31;;;;;;;;;11.33;9.67;;;;;26.30;62.63;100311.63;5038683;28;45469;-70
2023/08/16 07:37:57;;;;;;;;;11.33;9.00;;;;;26.55;62.11;100312.41;5035451;28;46201;-70
2023/08/16 07:40:23;;;;;;;;;11.33;10.00;;;;;26.51;61.68;100304.56;5048229;28;45527;-70
2023/08/16 07:42:48;;;;;;;;;10.00;8.33;;;;;26.56;61.26;100319.53;5036301;28;45521;-71
2023/08/16 07:45:14;;;;;;;;;12.00;9.33;;;;;26.51;61.61;100304.56;5036756;28;45469;-71
2023/08/16 07:47:40;;;;;;;;;10.33;10.33;;;;;26.68;61.23;100323.56;5033125;28;45947;-70
2023/08/16 07:50:06;;;;;;;;;9.00;9.00;;;;;26.68;60.63;100310.16;5044532;28;47434;-70
2023/08/16 07:52:31;;;;;;;;;11.67;8.67;;;;;26.85;60.52;100324.66;5036092;28;45550;-69
2023/08/16 07:55:03;;;;;;;;;11.67;9.00;;;;;26.92;60.21;100319.00;5027535;28;45457;-69
2023/08/16 07:57:32;;;;;;;;;10.33;9.00;;;;;26.97;60.44;100326.84;5036597;28;46240;-69
2023/08/16 07:59:57;;;;;;;;;10.67;9.00;;;;;26.94;60.45;100329.66;5036136;28;45560;-70
2023/08/16 08:02:23;;;;;;;;;7.00;7.00;;;;;26.98;60.07;100312.50;5036860;28;45533;-70
2023/08/16 08:04:49;;;;;;;;;10.00;9.67;;;;;27.13;60.02;100319.88;5043951;28;45540;-70
2023/08/16 08:07:15;;;;;;;;;13.00;8.00;;;;;27.17;59.83;100332.22;5037739;28;45537;-73
2023/08/16 08:09:41;;;;;;;;;11.00;10.33;;;;;27.05;59.86;100332.75;5037469;28;45366;-75
2023/08/16 08:12:07;;;;;;;;;10.33;9.33;;;;;27.05;60.53;100331.88;5027315;28;45729;-72
2023/08/16 08:14:33;;;;;;;;;9.67;8.00;;;;;27.17;59.98;100320.63;5036697;28;45478;-72
2023/08/16 08:17:01;;;;;;;;;12.33;9.00;;;;;26.78;59.09;100294.56;5036425;28;45477;-71
2023/08/16 08:19:31;;;;;;;;;8.00;8.00;;;;;27.00;59.79;100326.72;5034614;28;45440;-72
2023/08/16 08:22:06;;;;;;;;;8.00;7.67;;;;;27.16;59.64;100319.75;5033413;28;45781;-72
2023/08/16 08:24:35;;;;;;;;;11.67;10.00;;;;;27.06;58.94;100315.72;5033294;28;46358;-73
2023/08/16 08:27:01;;;;;;;;;9.33;9.00;;;;;26.87;60.30;100333.50;5040289;28;46124;-72
2023/08/16 08:29:27;;;;;;;;;10.67;10.00;;;;;27.02;60.48;100334.69;5030722;28;45553;-72
2023/08/16 08:31:55;;;;;;;;;10.67;9.67;;;;;27.11;60.29;100328.94;5032133;28;45576;-71
2023/08/16 08:34:22;;;;;;;;;11.00;9.67;;;;;26.81;60.80;100331.94;5036440;28;46237;-76
2023/08/16 08:36:47;;;;;;;;;12.33;10.00;;;;;26.98;60.42;100339.31;5033887;28;46170;-72
2023/08/16 08:39:18;;;;;;;;;13.00;11.00;;;;;26.97;60.15;100334.88;5034614;28;45418;-75
2023/08/16 08:41:47;;;;;;;;;11.67;9.67;;;;;27.10;60.03;100333.44;5034228;28;45400;-72
2023/08/16 08:44:17;;;;;;;;;31.75;30.75;;;;;27.21;60.55;100332.97;5036025;28;45522;-70
2023/08/16 08:46:46;;;;;;;;;10.33;10.00;;;;;27.27;60.08;100332.75;5038363;28;45478;-71
2023/08/16 08:49:15;;;;;;;;;9.00;9.00;;;;;27.32;60.14;100335.25;5037625;28;45532;-71
2023/08/16 08:51:41;;;;;;;;;9.00;8.00;;;;;27.32;59.69;100328.06;5031607;28;45274;-70
2023/08/16 08:54:07;;;;;;;;;10.00;9.00;;;;;27.31;59.32;100328.13;5035965;28;45433;-69
2023/08/16 08:56:34;;;;;;;;;8.33;7.00;;;;;27.36;59.35;100336.84;5037154;28;45461;-71
2023/08/16 08:59:01;;;;;;;;;9.67;9.67;;;;;27.44;59.53;100341.91;5026225;28;45544;-71
2023/08/16 09:01:28;;;;;;;;;11.67;10.00;;;;;27.53;59.10;100342.34;5031555;28;45490;-75
2023/08/16 09:03:56;;;;;;;;;7.33;7.33;;;;;27.35;58.68;100344.00;5031179;28;45866;-71
2023/08/16 09:06:22;;;;;;;;;9.67;7.00;;;;;27.33;58.90;100331.59;5032613;28;45475;-71
2023/08/16 09:08:48;;;;;;;;;8.00;6.00;;;;;27.52;58.68;100343.28;5017001;28;45570;-68
2023/08/16 09:11:15;;;;;;;;;7.00;7.00;;;;;27.54;58.49;100325.31;5033900;28;45439;-69
2023/08/16 09:13:41;;;;;;;;;8.00;8.00;;;;;27.68;57.89;100337.25;5031241;28;45580;-69
2023/08/16 09:16:08;;;;;;;;;9.00;8.00;;;;;27.83;57.71;100336.56;5035110;28;45636;-69
2023/08/16 09:18:34;;;;;;;;;9.00;7.67;;;;;27.96;58.08;100336.91;5035597;28;45363;-69
2023/08/16 09:21:00;;;;;;;;;6.00;6.00;;;;;28.18;57.32;100334.09;5035141;28;45441;-70
2023/08/16 09:23:28;;;;;;;;;8.00;7.67;;;;;28.36;56.60;100333.22;5033059;28;45498;-69
2023/08/16 09:25:53;;;;;;;;;10.00;8.00;;;;;28.50;55.96;100337.97;5034949;28;46129;-71
2023/08/16 09:28:20;;;;;;;;;8.67;8.33;;;;;28.62;56.11;100335.66;5033881;28;46064;-70
2023/08/16 09:30:52;;;;;;;;;8.00;7.00;;;;;28.68;55.66;100332.69;5032760;28;45567;-69
2023/08/16 09:33:19;;;;;;;;;8.00;7.67;;;;;28.84;55.59;100333.66;5042162;28;45501;-71
2023/08/16 09:35:48;;;;;;;;;9.00;7.67;;;;;28.76;55.00;100338.53;5042032;28;45576;-72
2023/08/16 09:38:27;;;;;;;;;9.33;9.33;;;;;28.84;53.87;100328.28;5034764;28;45457;-72
2023/08/16 09:40:56;;;;;;;;;10.00;9.00;;;;;28.82;54.60;100332.00;5032137;28;45494;-69
2023/08/16 09:43:22;;;;;;;;;11.00;10.00;;;;;28.76;54.92;100327.78;5033653;28;45823;-71
2023/08/16 09:45:53;;;;;;;;;13.00;9.33;;;;;28.89;54.24;100322.69;5034081;28;45370;-72
2023/08/16 09:48:21;;;;;;;;;9.00;9.00;;;;;29.17;54.29;100334.75;5032706;28;45894;-74
2023/08/16 09:50:48;;;;;;;;;11.00;10.00;;;;;29.16;53.76;100328.50;5033793;28;45347;-75
2023/08/16 09:53:14;;;;;;;;;11.67;11.67;;;;;29.13;54.38;100316.09;5032781;28;45591;-78
2023/08/16 09:55:42;;;;;;;;;8.00;8.00;;;;;29.17;54.48;100326.69;5033028;28;45521;-77
2023/08/16 09:58:23;;;;;;;;;9.33;9.33;;;;;29.04;54.13;100312.97;5036461;28;45604;-82
2023/08/16 10:00:49;;;;;;;;;11.33;9.67;;;;;28.84;54.30;100322.91;5036426;28;45524;-75
2023/08/16 10:03:27;;;;;;;;;38.67;33.33;;;;;28.86;54.97;100330.91;5034416;28;45556;-73
2023/08/16 10:05:54;;;;;;;;;13.00;13.00;;;;;28.99;55.13;100309.63;5032214;28;46547;-77
2023/08/16 10:08:23;;;;;;;;;19.67;17.33;;;;;29.19;54.23;100323.00;5033197;28;46009;-74
2023/08/16 10:10:54;;;;;;;;;15.33;15.00;;;;;29.18;54.13;100307.78;5032786;28;45470;-80
2023/08/16 10:13:24;;;;;;;;;15.33;15.33;;;;;29.38;54.49;100314.81;5031683;28;45429;-74
2023/08/16 10:15:53;;;;;;;;;11.33;11.00;;;;;29.48;54.20;100325.97;5033602;28;46297;-74
2023/08/16 10:18:23;;;;;;;;;13.33;13.00;;;;;29.45;53.93;100321.63;5034346;28;45695;-81
2023/08/16 10:20:59;;;;;;;;;17.33;14.00;;;;;29.40;54.17;100328.22;5035918;28;45509;-72
2023/08/16 10:23:27;;;;;;;;;16.67;16.00;;;;;29.27;53.95;100327.97;5037904;28;45651;-74
2023/08/16 10:26:01;;;;;;;;;14.67;14.67;;;;;29.15;54.03;100326.78;5030360;28;46138;-85
2023/08/16 10:28:30;;;;;;;;;17.00;15.00;;;;;29.03;54.48;100332.72;5034192;28;45558;-75
2023/08/16 10:31:01;;;;;;;;;10.67;9.67;;;;;28.76;54.26;100309.84;5039869;28;45363;-74
2023/08/16 10:33:37;;;;;;;;;10.67;10.00;;;;;28.90;54.61;100327.09;5044214;28;45510;-78
2023/08/16 10:36:06;;;;;;;;;10.67;9.33;;;;;28.85;55.24;100331.81;5044317;28;45557;-80
2023/08/16 10:38:37;;;;;;;;;12.67;11.33;;;;;28.94;54.73;100339.44;5049022;28;44826;-75
2023/08/16 10:41:13;;;;;;;;;13.00;10.67;;;;;28.86;55.23;100337.13;5035252;28;45502;-74
2023/08/16 10:43:45;;;;;;;;;15.33;14.67;;;;;28.87;55.03;100330.81;5037810;28;45458;-74
2023/08/16 10:46:13;;;;;;;;;14.67;14.00;;;;;28.86;55.06;100323.69;5039049;28;45562;-80
2023/08/16 10:48:40;;;;;;;;;13.33;12.33;;;;;28.83;55.13;100339.09;5031118;28;45639;-75
2023/08/16 10:51:08;;;;;;;;;12.67;12.33;;;;;28.79;54.88;100335.72;5039858;28;45399;-74
2023/08/16 10:53:37;;;;;;;;;12.33;11.00;;;;;28.68;55.22;100335.38;5038519;28;45483;-74
2023/08/16 10:56:08;;;;;;;;;12.33;11.67;;;;;28.62;55.31;100338.34;5037485;28;46053;-73
2023/08/16 10:58:47;;;;;;;;;14.00;13.00;;;;;28.47;55.21;100313.94;5037921;28;45461;-74
2023/08/16 11:01:15;;;;;;;;;11.00;11.00;;;;;28.45;55.22;100326.56;5038776;28;45462;-77
2023/08/16 11:03:49;;;;;;;;;11.00;11.00;;;;;28.42;55.45;100318.66;5037810;28;45428;-89
2023/08/16 11:06:19;;;;;;;;;14.00;12.00;;;;;28.48;55.42;100336.28;5037027;28;47811;-81
2023/08/16 11:08:45;;;;;;;;;14.00;11.00;;;;;28.44;55.18;100324.81;5038156;28;45684;-86
2023/08/16 11:11:12;;;;;;;;;14.33;13.00;;;;;28.47;55.66;100318.41;5038112;28;45634;-78
2023/08/16 11:13:43;;;;;;;;;11.00;10.00;;;;;28.34;55.63;100312.78;5038729;28;45477;-76
2023/08/16 11:16:10;;;;;;;;;16.00;13.00;;;;;28.34;56.09;100326.19;5049412;28;45505;-76
2023/08/16 11:18:38;;;;;;;;;15.00;14.00;;;;;28.34;55.87;100321.69;5038099;28;45548;-75
2023/08/16 11:21:07;;;;;;;;;13.00;12.00;;;;;28.31;55.87;100311.09;5034969;28;46156;-79